SÍGUENOS

APP INUMET

Disponible en Google Play

Productos aeronáuticos

  • SIGMET
  • METAR / SPECI
  • TAF
  • AIREP
  • Aviso de aeródromo
  • Pronárea
  • Carta superficie
Fecha : 20/07/2017
FTUY 02 SUMU 20 05 30
SUMU TAF 200530Z 2006/2106 34013KT CAVOK TX16/2018Z TN04/2010Z PROB30 TEMPO 2007/2010 31012KT 3000 BR NSC BECMG 2011/2015 31015KT 9999 FEW020 BKN200 BECMG 2100/2104 29010KT 9999 FEW020 BKN070=
SULS TAF 200530Z 2006/2106 33018KT CAVOK TX16/2018Z TN03/2010Z PROB30 TEMPO 2007/2010 30018KT 2500 BR NSC BECMG 2011/2015 30015KT 9999 FEW017 BKN200 BECMG 2102/2106 29010KT 9999 FEW020 BKN070 BKN200=
SUAA TAF 200530Z 2006/2106 35012KT CAVOK TX16/2018Z TN03/2010Z PROB30 TEMPO 2007/2010 31011KT 2000 BR NSC BECMG 2011/2015 31015KT 9999 FEW020 BKN200=
SUCA TAF 200530Z 2006/2106 32010KT CAVOK TX17/2018Z TN02/2010Z PROB30 TEMPO 2007/2010 31016KT 4000 BR NSC BECMG 2011/2015 31015KT 9999 FEW023 SCT200=
SUDU TAF 200530Z 2006/2106 30010KT CAVOK TX16/2018Z TN01/2010Z PROB40 TEMPO 2007/2010 31008KT 1500 BR NSC BECMG 2011/2015 31012KT 9999 FEW023 SCT200=
SUSO TAF 200530Z 2006/2106 36010KT CAVOK TX18/2018Z TN01/2010Z PROB40 TEMPO 2007/2010 35005KT 1200 BR NSC BECMG 2011/2015 34010KT 9999 FEW025=
SURV TAF 200530Z 2006/2106 31008KT 7000 NSC TX18/2018Z TN02/2010Z PROB40 TEMPO 2007/2010 33005KT 1000 MIFG NSC BECMG 2011/2015 32010KT 9999 FEW023=

Predictor : Alejandro Curiel


Mensajes TAF vigentes - Internacionales


Argentina
TAF SACO 202300Z 2100/2124 VRB03KT CAVOK TX23/2118Z TN05/2111Z BECMG 2113/2116 09005KT
TAF SAEZ 202300Z 2100/2124 30005KT CAVOK TX19/2118Z TN07/2109Z BECMG 2104/2106 VRB03KT BECMG 2119/2121 07010KT 9999 BKN040
TAF SAAR 202300Z 2100/2124 VRB05KT CAVOK TX21/2118Z TN05/2111Z
TAF SABE 202300Z 2100/2124 30005KT CAVOK TX17/2118Z TN08/2111Z BECMG 2104/2106 VRB03KT BECMG 2112/2115 09010KT BECMG 2122/2124 SCT035
TAF SAME 202300Z 2100/2124 14005KT CAVOK TX20/2120Z TN03/2110Z
Bolivia
TAF SLLP 202230Z 2100/2124 04005KT 9999 NSC TX17/2120Z TNM04/2110Z BECMG 2113/2117 14007KT BECMG 2118/2120 26012KT
Brasil
TAF SBSP 202214Z 2100/2124 15005KT 3000 BR BKN003 TN12/2110Z TX24/2117Z BECMG 2101/2103 00000KT 6000 NSW SCT005 PROB30 2108/2111 3000 BR BKN005 BECMG 2111/2113 05007KT CAVOK BECMG 2114/2116 31007KT SCT045 BECMG 2120/2122 00000KT CAVOK RMK PGN
TAF SBGR 202214Z 2100/2206 08005KT 8000 NSC TN11/2110Z TX25/2118Z PROB40 2100/2103 5000 BR BKN006 BECMG 2106/2108 4000 BR SCT006 PROB40 2108/2112 0400 FG OVC001 BECMG 2112/2114 05007KT CAVOK BECMG 2114/2116 31007KT SCT045 BECMG 2120/2122 00000KT CAVOK RMK PGN
TAF SBBR 202200Z 2100/2124 13007KT CAVOK TN12/2109Z TX25/2118Z FM211300 10012KT CAVOK FM211800 08008KT 9999 FEW040 RMK PDF
TAF SBFL 202200Z 2100/2124 36005KT 9999 FEW030 TN13/2108Z TX22/2118Z BECMG 2114/2116 17006KT RMK PER
TAF SBFI 202200Z 2100/2124 11004KT CAVOK TN08/2109Z TX22/2118Z RMK PE R
TAF SBPA 202200Z 2100/2124 28004KT CAVOK TN06/2109Z TX19/2118Z PROB30 2108/2112 0500 FG NSC RMK PER
TAF SBRJ 202100Z 2100/2112 35005KT CAVOK TN18/2109Z TX21/2111Z BECMG 2105/2107 7000 NSC RMK PGX
Colombia
TAF SKBO 202300Z 2100/2124 VRB02KT 9999 SCT017 SCT080 PROB40 TEMPO 2109/2114 5000 BR DZ BECMG 2114/2116 14010KT TEMPO 2118/2122 7000 DZ TX20/2018Z TN10/2111Z
Chile
TAF SCCI 202239Z 2100/2200 29010KT 9999 FEW020 SCT035 TN01/2112Z TX05/2119Z BECMG 2102/2104 33008KT TEMPO 2107/2110 VRB03KT 3000 BCFG SCT010 BECMG 2112/2114 04012KT TEMPO 2116/2121 03018G30KT 9000 -SHRA BKN028 BECMG 2121/2123 31010KT
TAF SCEL 202210Z 2100/2124 19008KT CAVOK TX23/2118Z TN03/2110Z BECMG 2101/2103 16004KT TEMPO 2105/2114 VRB02KT 4000 BR NSC BECMG 2116/2118 19008KT
Ecuador
SEQM 202250Z 2100/2124 04005KT 9999 FEW030 FM210600 15005KT CAVOK BECMG 2113/2115 VRB03KT FM211800 18010KT 9999 SCT040 BECMG 2120/2121 36018KT TX25/2119Z TN05/2111Z
EEUU
KJFK 210011Z 2100/2206 21005KT P6SM SCT060 SCT250 TEMPO 2101/2102 31010G25KT 4SM SHRA SCT025 BKN035 FM210200 32007KT P6SM FEW060 FM211500 28009KT P6SM FEW050 FM212000 24012KT P6SM SCT050
KLGA 210011Z 2100/2124 28012G19KT P6SM SCT080 SCT200 TEMPO 2101/2102 31010G25KT 4SM SHRA SCT025 BKN035 FM210200 32007KT P6SM FEW060 FM211500 29008KT P6SM FEW050
KIAD 202342Z 2100/2206 22005KT P6SM SCT070 FM210800 28004KT P6SM SCT070 FM212000 30007KT P6SM BKN050 FM220400 00000KT P6SM SCT050
KDCA 202342Z 2100/2124 22007KT P6SM SCT070 FM211000 27004KT P6SM FEW070 FM212100 29007KT P6SM BKN050 FM212200 30007KT P6SM SCT050
KMIA 202335Z 2100/2124 VRB06KT P6SM VCTS SCT025CB BKN050 FM210100 20004KT P6SM SCT025 BKN250 FM211500 15008KT P6SM VCTS SCT025CB BKN100
España
TAF LEMD 202300Z 2100/2206 VRB05KT CAVOK TX33/2115Z TN19/2105Z BECMG 2107/2108 23010KT TEMPO 2112/2119 23012G23KT BECMG 2121/2123 VRB05KT
TAF LEBL 202300Z 2100/2124 07010KT 9999 FEW030 TX29/2112Z TN23/2105Z BECMG 2102/2104 VRB03KT TEMPO 2103/2107 33006KT BECMG 2108/2110 13010KT PROB40 TEMPO 2110/2114 TSRA FEW030CB BECMG 2116/2118 VRB03KT
Francia
TAF LFPO 202300Z 2100/2206 VRB03KT CAVOK BECMG 2102/2104 11005KT BECMG 2108/2110 20010KT TEMPO 2112/2118 21010G20KT BECMG 2202/2204 BKN020
Inglaterra
TAF EGLL 202303Z 2100/2206 18007KT 9999 FEW025 BECMG 2106/2108 17015G25KT BECMG 2116/2118 15012KT TEMPO 2120/2203 8000 RA BKN012 PROB30 TEMPO 2121/2202 4000 +RA BKN008 BECMG 2200/2203 21005KT
Panamá
TAF MPTO 202300Z 2100/2206 18006KT 9999 SCT016 SCT090 PROB30 TEMPO 2118/2122 7000 RA SCT015CB BKN090 TEMPO 2122/2202 00000KT
Paraguay
TAF SGAS 202240Z 2100/2200 VRB03KT 8000 NSC TX24/2119Z TN06/2110Z BECMG 2102/2105 CAVOK PROB30 TEMPO 2108/2110 5000 BR NSC BECMG 2112/2115 04011KT CAVOK
Venezuela
TAF SVMI 202200Z 2100/2200 05006KT 9999 SCT016 TX33/18Z TN25/09Z FM210130 00000KT 9999 FEW016 TEMPO 2104/2108 CAVOK

* Datos extraidos del Text DataServer de la NOAA (NOAA TEXT DATA SERVER)

Instituto Uruguayo de Meteorología

Dr. Javier Barrios Amorín 1488 - CP 11200
Mesa Central (598) 1895

Montevideo - Uruguay